This is the latest recevied weather packets stored in our database for station/object JA0ZJX-13. If no packets are shown the sender has not sent any weather packets the latest 1 day(s).
| Time | Temp. | Humidity | Pressure | Rain* | Wind** | Luminosity | Snow |
|---|---|---|---|---|---|---|---|
| 1777950808 | 17.78° C | 34% | 1019.1 hPa | 0 mm | 0.45 m/s, 281° | 1014 W/m² | - |
| 1777950217 | 17.22° C | 34% | 1019.1 hPa | 0 mm | 1.79 m/s, 229° | 1016 W/m² | - |
| 1777949606 | 16.67° C | 32% | 1019.2 hPa | 0 mm | 0.89 m/s, 325° | 1020 W/m² | - |
| 1777949019 | 16.67° C | 33% | 1019.4 hPa | 0 mm | 0.89 m/s, 320° | 1014 W/m² | - |
| 1777948407 | 16.67° C | 37% | 1019.4 hPa | 0 mm | 1.34 m/s, 51° | 1013 W/m² | - |
| 1777947816 | 16.11° C | 37% | 1019.6 hPa | 0 mm | 0.45 m/s, 347° | 1009 W/m² | - |
| 1777947206 | 16.11° C | 40% | 1019.8 hPa | 0 mm | 1.34 m/s, 283° | 1004 W/m² | - |
| 1777946619 | 15.56° C | 39% | 1019.8 hPa | 0 mm | 0.89 m/s, 283° | 993 W/m² | - |
| 1777946007 | 15° C | 40% | 1019.8 hPa | 0 mm | 1.79 m/s, 26° | 983 W/m² | - |
| 1777945416 | 15° C | 40% | 1019.9 hPa | 0 mm | 1.34 m/s, 342° | 972 W/m² | - |
| 1777944810 | 15° C | 40% | 1020 hPa | 0 mm | 0.89 m/s, 304° | 962 W/m² | - |
| 1777944218 | 14.44° C | 40% | 1020.3 hPa | 0 mm | 1.34 m/s, 128° | 944 W/m² | - |
| 1777943607 | 14.44° C | 43% | 1020.4 hPa | 0 mm | 1.34 m/s, 66° | 930 W/m² | - |
| 1777943017 | 13.89° C | 44% | 1020.5 hPa | 0 mm | 0.45 m/s, 280° | 911 W/m² | - |
| 1777942411 | 13.89° C | 45% | 1020.4 hPa | 0 mm | 1.34 m/s, 202° | 893 W/m² | - |
| 1777941821 | 13.33° C | 47% | 1021.5 hPa | 0 mm | 0.45 m/s, 25° | 868 W/m² | - |
| 1777941211 | 12.78° C | 47% | 1021.6 hPa | 0 mm | 0.89 m/s, 230° | 846 W/m² | - |
| 1777940620 | 12.22° C | 47% | 1021.5 hPa | 0 mm | 0.45 m/s, 283° | 823 W/m² | - |
| 1777940023 | 12.22° C | 49% | 1021.5 hPa | 0 mm | 1.34 m/s, 132° | 798 W/m² | - |
| 1777939423 | 12.22° C | 50% | 1021.5 hPa | 0 mm | 1.34 m/s, 80° | 772 W/m² | - |
| 1777938813 | 11.67° C | 52% | 1021.4 hPa | 0 mm | 0.89 m/s, 338° | 740 W/m² | - |
| 1777938207 | 11.11° C | 55% | 1021.2 hPa | 0 mm | 0.45 m/s, 195° | 67 W/m² | - |
* Rain latest hour (hover to see other rain measurements)
** Current wind speed in m/s (hover to see current wind gust speed)